Gemmell, Minnesota
Current Conditions -  °F | °C
As of 4:31 AM on Friday 21 Nov 2014 (Local Time) from KVWU Reporting Station
Scattered Clouds Scattered Clouds  
Wind Chill: 10°   Ceiling: Unl
Heat Index: 10°   Visibility: 10mi
Dew Point:   Wind: 3mph
Humidity: 73%   Direction: 160°SSE
Pressure: 29.97"   Gusts: NA
Location:  47.9892°N, 94.2138°W
Report Text: KVWU 211031Z AUTO 16003KT 10SM SCT120 M12/M16 A2997 RMK AO2
Loading
Personal Weather Stations






























Interactive Weather Map New forecast layout! Learn more

10-Day Weather Forecast

Advertisements
Track Severe Weather on mobile